Freedom, New York
Current Conditions -  °F | °C
As of 11:35 AM on Wednesday 22 Oct 2014 (Local Time) from KOLE Reporting Station
Moderate Fog Moderate Fog  
Wind Chill: 34°   Ceiling: 300
Heat Index: 39°   Visibility: 0.5mi
Dew Point: 39°   Wind: 8mph
Humidity: 100%   Direction: 20°NNE
Pressure: 30.15"   Gusts: 16mph
Location:  42.48°N, 78.33°W
Report Text: KOLE 221535Z AUTO 02007G14KT 1/2SM FG OVC003 04/04 A3015 RMK AO2
Loading
Personal Weather Stations






























Interactive Weather Map
Tropical Storm Tracking
New forecast layout! Learn more

10-Day Weather Forecast

Advertisements
Track Severe Weather on mobile